createdAt,value
2022-08-03T00:02:08.152Z,83.36
2022-08-03T00:04:54.848Z,82.66
2022-08-03T00:07:41.111Z,84.00
2022-08-03T00:10:26.988Z,84.22
2022-08-03T00:13:13.181Z,83.63
2022-08-03T00:15:58.476Z,84.08
2022-08-03T00:18:43.791Z,84.19
2022-08-03T00:21:29.356Z,84.43
2022-08-03T00:24:14.879Z,84.14
2022-08-03T00:27:00.046Z,84.14
2022-08-03T00:30:00.002Z,85.24
2022-08-03T00:32:45.755Z,85.19
2022-08-03T00:35:50.067Z,85.71
2022-08-03T00:38:36.549Z,85.01
2022-08-03T00:41:22.137Z,84.79
2022-08-03T00:44:07.337Z,85.12
2022-08-03T00:46:52.691Z,85.60
2022-08-03T00:49:39.656Z,85.91
2022-08-03T00:52:26.084Z,86.22
2022-08-03T00:55:12.632Z,86.22
2022-08-03T00:57:59.414Z,86.62
2022-08-03T01:00:44.776Z,86.90
2022-08-03T01:03:30.035Z,86.56
2022-08-03T01:06:22.634Z,87.36
2022-08-03T01:09:26.927Z,87.44
2022-08-03T01:12:46.371Z,86.88
2022-08-03T01:15:39.160Z,87.19
2022-08-03T01:18:38.921Z,86.20
2022-08-03T01:21:32.935Z,86.55
2022-08-03T01:24:37.995Z,86.32
2022-08-03T01:27:31.066Z,86.63
2022-08-03T01:30:16.678Z,87.46
2022-08-03T01:33:10.106Z,87.87
2022-08-03T01:36:08.026Z,88.81
2022-08-03T01:39:02.159Z,87.55
2022-08-03T01:42:00.949Z,87.61
2022-08-03T01:44:48.808Z,88.22
2022-08-03T01:47:34.637Z,88.40
2022-08-03T01:50:22.926Z,88.34
2022-08-03T01:53:09.320Z,89.58
2022-08-03T01:55:55.755Z,89.44
2022-08-03T01:58:41.626Z,89.20
2022-08-03T02:01:27.592Z,89.10
2022-08-03T02:04:35.421Z,89.23
2022-08-03T02:07:20.877Z,88.74
2022-08-03T02:10:06.995Z,89.16
2022-08-03T02:12:53.662Z,88.44
2022-08-03T02:15:39.227Z,88.04
2022-08-03T02:18:25.946Z,87.49
2022-08-03T02:21:12.044Z,88.88
2022-08-03T02:24:17.447Z,88.54
2022-08-03T02:27:05.531Z,88.04
2022-08-03T02:30:01.425Z,88.33
2022-08-03T02:32:52.158Z,88.44
2022-08-03T02:35:38.172Z,88.08
2022-08-03T02:38:27.423Z,89.31
2022-08-03T02:41:15.560Z,88.89
2022-08-03T02:44:06.527Z,89.19
2022-08-03T02:46:56.057Z,88.77
2022-08-03T02:49:51.362Z,88.76
2022-08-03T02:52:37.427Z,88.85
2022-08-03T02:55:23.861Z,89.01
2022-08-03T02:58:10.429Z,89.42
2022-08-03T03:00:56.282Z,90.48
2022-08-03T03:03:44.841Z,89.97
2022-08-03T03:06:31.668Z,89.46
2022-08-03T03:09:17.647Z,89.17
2022-08-03T03:12:04.381Z,88.76
2022-08-03T03:14:49.544Z,89.48
2022-08-03T03:17:35.214Z,90.41
2022-08-03T03:20:29.419Z,90.49
2022-08-03T03:23:16.081Z,90.25
2022-08-03T03:26:02.234Z,89.80
2022-08-03T03:28:47.861Z,88.93
2022-08-03T03:31:32.940Z,90.47
2022-08-03T03:34:18.833Z,90.13
2022-08-03T03:37:05.242Z,90.33
2022-08-03T03:39:50.984Z,90.26
2022-08-03T03:42:36.318Z,90.93
2022-08-03T03:45:21.941Z,90.89
2022-08-03T03:48:07.675Z,89.71
2022-08-03T03:50:53.296Z,90.21
2022-08-03T03:53:38.770Z,89.15
2022-08-03T03:56:24.572Z,90.35
2022-08-03T03:59:10.130Z,90.65
2022-08-03T04:01:58.935Z,90.97
2022-08-03T04:05:03.311Z,89.82
2022-08-03T04:08:25.976Z,91.06
2022-08-03T04:11:15.372Z,91.23
2022-08-03T04:14:06.990Z,91.66
2022-08-03T04:16:55.956Z,92.11
2022-08-03T04:19:44.353Z,91.96
2022-08-03T04:22:32.567Z,91.44
2022-08-03T04:25:19.495Z,92.03
2022-08-03T04:28:08.018Z,92.56
2022-08-03T04:31:10.396Z,91.39
2022-08-03T04:33:55.648Z,91.97
2022-08-03T04:36:50.401Z,91.83
2022-08-03T04:39:36.199Z,90.97
2022-08-03T04:42:22.615Z,91.08
2022-08-03T04:45:13.365Z,91.37
2022-08-03T04:47:59.311Z,90.76
2022-08-03T04:50:48.225Z,90.22
2022-08-03T04:53:34.340Z,89.84
2022-08-03T04:56:19.578Z,89.82
2022-08-03T04:59:04.762Z,91.35
2022-08-03T05:01:50.480Z,92.22
2022-08-03T05:04:38.647Z,92.18
2022-08-03T05:07:25.089Z,92.28
2022-08-03T05:10:16.186Z,93.04
2022-08-03T05:13:01.869Z,93.37
2022-08-03T05:15:47.417Z,93.78
2022-08-03T05:18:32.631Z,94.14
2022-08-03T05:21:17.894Z,94.88
2022-08-03T05:24:03.520Z,94.84
2022-08-03T05:26:48.759Z,94.37
2022-08-03T05:29:33.897Z,94.81
2022-08-03T05:32:19.672Z,94.18
2022-08-03T05:35:55.881Z,94.24
2022-08-03T05:38:10.544Z,93.45
2022-08-03T05:41:22.765Z,93.85
2022-08-03T05:44:02.819Z,93.37
2022-08-03T05:46:48.080Z,93.95
2022-08-03T05:49:33.675Z,94.52
2022-08-03T05:52:18.658Z,94.87
2022-08-03T05:55:05.360Z,96.65
2022-08-03T05:57:50.576Z,96.69
2022-08-03T06:00:35.745Z,94.43
2022-08-03T06:03:21.965Z,95.21
2022-08-03T06:06:09.133Z,95.60
2022-08-03T06:08:54.395Z,94.54
2022-08-03T06:11:40.395Z,94.18
2022-08-03T06:14:25.724Z,94.11
2022-08-03T06:17:11.390Z,94.17
2022-08-03T06:19:58.210Z,92.51
2022-08-03T06:22:50.891Z,92.17
2022-08-03T06:25:36.765Z,90.90
2022-08-03T06:28:52.263Z,89.94
2022-08-03T06:31:33.158Z,89.57
2022-08-03T06:34:33.976Z,89.03
2022-08-03T06:37:20.676Z,88.88
2022-08-03T06:40:06.168Z,87.50
2022-08-03T06:42:51.446Z,86.67
2022-08-03T06:45:36.629Z,84.02
2022-08-03T06:48:21.830Z,79.99
2022-08-03T06:51:07.226Z,77.29
2022-08-03T06:53:52.563Z,78.63
2022-08-03T06:56:38.253Z,78.77
2022-08-03T07:00:10.592Z,74.92
2022-08-03T07:02:30.325Z,76.33
2022-08-03T07:05:16.599Z,74.71
2022-08-03T07:08:03.199Z,73.67
2022-08-03T07:10:48.739Z,73.51
2022-08-03T07:13:34.050Z,71.17
2022-08-03T07:16:19.264Z,70.64
2022-08-03T07:19:04.936Z,69.93
2022-08-03T07:21:50.066Z,69.23
2022-08-03T07:24:38.624Z,68.99
2022-08-03T07:27:27.024Z,68.48
2022-08-03T07:30:14.423Z,67.46
2022-08-03T07:33:26.040Z,67.72
2022-08-03T07:36:11.325Z,68.34
2022-08-03T07:38:58.130Z,65.30
2022-08-03T07:41:43.488Z,64.26
2022-08-03T07:44:28.731Z,62.32
2022-08-03T07:47:22.344Z,62.23
2022-08-03T07:50:08.936Z,64.40
2022-08-03T07:52:56.072Z,61.62
2022-08-03T07:55:41.445Z,61.12
2022-08-03T07:58:27.661Z,61.21
2022-08-03T08:01:15.036Z,57.80
2022-08-03T08:04:06.360Z,58.14
2022-08-03T08:06:52.129Z,57.41
2022-08-03T08:09:37.401Z,58.07
2022-08-03T08:13:25.435Z,56.36
2022-08-03T08:16:10.931Z,57.85
2022-08-03T08:18:56.107Z,57.12
2022-08-03T08:21:53.927Z,55.99
2022-08-03T08:24:49.101Z,56.04
2022-08-03T08:28:29.647Z,54.23
2022-08-03T08:30:49.088Z,53.89
2022-08-03T08:34:03.157Z,52.30
2022-08-03T08:36:41.660Z,51.97
2022-08-03T08:39:26.728Z,50.72
2022-08-03T08:42:12.197Z,51.66
2022-08-03T08:44:57.407Z,48.72
2022-08-03T08:47:50.928Z,49.49
2022-08-03T08:50:37.885Z,48.07
2022-08-03T08:53:27.620Z,47.63
2022-08-03T08:56:17.207Z,47.32
2022-08-03T08:59:03.554Z,46.30
2022-08-03T09:01:50.421Z,45.54
2022-08-03T09:04:39.020Z,46.27
2022-08-03T09:07:24.379Z,46.21
2022-08-03T09:10:13.290Z,45.90
2022-08-03T09:12:58.888Z,45.34
2022-08-03T09:16:00.743Z,44.77
2022-08-03T09:18:39.968Z,43.99
2022-08-03T09:21:30.144Z,43.42
2022-08-03T09:24:04.406Z,39.44
2022-08-03T09:26:32.530Z,37.77
2022-08-03T09:29:14.030Z,33.04
2022-08-03T09:31:46.468Z,32.52
2022-08-03T09:34:16.489Z,27.62
2022-08-03T09:36:50.531Z,27.05
2022-08-03T09:39:19.096Z,27.09
2022-08-03T09:42:06.773Z,24.39
2022-08-03T09:44:36.026Z,26.41
2022-08-03T09:47:04.021Z,28.61
2022-08-03T09:49:31.977Z,31.56
2022-08-03T09:52:32.566Z,32.45
2022-08-03T09:54:53.188Z,31.67
2022-08-03T09:57:22.055Z,31.68
2022-08-03T09:59:48.963Z,34.32
2022-08-03T10:02:26.183Z,35.00
2022-08-03T10:04:54.284Z,32.94
2022-08-03T10:07:22.428Z,35.63
2022-08-03T10:09:58.122Z,32.57
2022-08-03T10:12:45.237Z,33.39
2022-08-03T10:16:24.017Z,33.97
2022-08-03T10:17:59.407Z,33.78
2022-08-03T10:20:27.461Z,33.06
2022-08-03T10:22:54.431Z,32.70
2022-08-03T10:25:21.169Z,33.87
2022-08-03T10:28:04.282Z,33.75
2022-08-03T10:30:33.364Z,34.22
2022-08-03T10:33:05.845Z,32.60
2022-08-03T10:35:55.045Z,34.23
2022-08-03T10:38:26.918Z,34.40
2022-08-03T10:40:58.931Z,32.54
2022-08-03T10:43:28.785Z,34.04
2022-08-03T10:45:55.950Z,33.44
2022-08-03T10:48:22.839Z,31.44
2022-08-03T10:50:50.865Z,31.95
2022-08-03T10:53:34.695Z,32.76
2022-08-03T10:56:26.608Z,29.99
2022-08-03T10:59:08.812Z,30.98
2022-08-03T11:02:00.561Z,30.53
2022-08-03T11:04:30.000Z,29.48
2022-08-03T11:07:19.070Z,29.21
2022-08-03T11:09:51.722Z,27.73
2022-08-03T11:12:22.512Z,27.54
2022-08-03T11:15:03.308Z,29.34
2022-08-03T11:17:32.408Z,28.12
2022-08-03T11:19:59.076Z,28.42
2022-08-03T11:22:50.831Z,26.86
2022-08-03T11:25:54.895Z,27.62
2022-08-03T11:28:28.846Z,29.33
2022-08-03T11:30:55.617Z,27.38
2022-08-03T11:33:32.196Z,25.20
2022-08-03T11:36:01.620Z,25.90
2022-08-03T11:38:30.026Z,27.45
2022-08-03T11:40:57.511Z,27.36
2022-08-03T11:43:31.485Z,25.65
2022-08-03T11:46:08.184Z,25.83
2022-08-03T11:48:37.133Z,26.95
2022-08-03T11:51:06.094Z,25.79
2022-08-03T11:53:33.032Z,25.68
2022-08-03T11:56:12.978Z,26.22
2022-08-03T11:59:14.247Z,24.51
2022-08-03T12:01:35.699Z,24.47
2022-08-03T12:04:05.250Z,24.71
2022-08-03T12:06:52.741Z,23.05
2022-08-03T12:09:21.167Z,23.54
2022-08-03T12:11:59.734Z,23.80
2022-08-03T12:14:50.786Z,24.56
2022-08-03T12:17:15.289Z,24.22
2022-08-03T12:19:45.235Z,24.68
2022-08-03T12:22:12.083Z,22.49
2022-08-03T12:24:43.830Z,24.26
2022-08-03T12:27:10.483Z,22.21
2022-08-03T12:29:37.486Z,23.34
2022-08-03T12:32:04.424Z,21.84
2022-08-03T12:34:47.796Z,21.14
2022-08-03T12:37:19.073Z,21.21
2022-08-03T12:40:02.365Z,21.28
2022-08-03T12:42:35.587Z,21.57
2022-08-03T12:45:22.482Z,20.43
2022-08-03T12:47:58.013Z,20.56
2022-08-03T12:50:35.064Z,21.89
2022-08-03T12:53:04.578Z,20.69
2022-08-03T12:55:56.370Z,19.79
2022-08-03T12:58:34.365Z,21.50
2022-08-03T13:01:09.434Z,22.14
2022-08-03T13:04:02.666Z,24.66
2022-08-03T13:06:30.614Z,23.96
2022-08-03T13:09:07.742Z,25.58
